sensor_id;sensor_type;location;lat;lon;timestamp;pressure;altitude;pressure_sealevel;temperature;humidity
15568;BME280;7885;42.596;23.044;2023-04-07T00:02:11;92659.31;;;3.58;69.41
15568;BME280;7885;42.596;23.044;2023-04-07T00:04:38;92668.84;;;3.55;69.29
15568;BME280;7885;42.596;23.044;2023-04-07T00:07:04;92671.13;;;3.53;68.63
15568;BME280;7885;42.596;23.044;2023-04-07T00:09:31;92666.31;;;3.43;68.91
15568;BME280;7885;42.596;23.044;2023-04-07T00:11:58;92661.72;;;3.44;68.48
15568;BME280;7885;42.596;23.044;2023-04-07T00:14:26;92666.47;;;3.50;68.77
15568;BME280;7885;42.596;23.044;2023-04-07T00:16:54;92666.53;;;3.54;67.17
15568;BME280;7885;42.596;23.044;2023-04-07T00:19:21;92665.41;;;3.55;70.28
15568;BME280;7885;42.596;23.044;2023-04-07T00:21:48;92654.84;;;3.46;70.93
15568;BME280;7885;42.596;23.044;2023-04-07T00:24:14;92659.09;;;3.47;69.93
15568;BME280;7885;42.596;23.044;2023-04-07T00:26:41;92656.50;;;3.51;68.67
15568;BME280;7885;42.596;23.044;2023-04-07T00:29:08;92653.00;;;3.50;65.17
15568;BME280;7885;42.596;23.044;2023-04-07T00:31:34;92659.66;;;3.56;66.51
15568;BME280;7885;42.596;23.044;2023-04-07T00:34:03;92653.56;;;3.60;65.47
15568;BME280;7885;42.596;23.044;2023-04-07T00:36:30;92653.28;;;3.65;65.01
15568;BME280;7885;42.596;23.044;2023-04-07T00:38:57;92652.97;;;3.70;65.10
15568;BME280;7885;42.596;23.044;2023-04-07T00:41:24;92656.50;;;3.74;66.18
15568;BME280;7885;42.596;23.044;2023-04-07T00:43:51;92653.09;;;3.77;66.21
15568;BME280;7885;42.596;23.044;2023-04-07T00:46:21;92654.28;;;3.79;65.60
15568;BME280;7885;42.596;23.044;2023-04-07T00:48:48;92659.38;;;3.84;64.35
15568;BME280;7885;42.596;23.044;2023-04-07T00:51:16;92657.81;;;3.83;63.24
15568;BME280;7885;42.596;23.044;2023-04-07T00:53:43;92654.91;;;3.92;61.32
15568;BME280;7885;42.596;23.044;2023-04-07T00:56:10;92656.75;;;3.88;61.07
15568;BME280;7885;42.596;23.044;2023-04-07T00:58:37;92654.00;;;3.84;60.08
15568;BME280;7885;42.596;23.044;2023-04-07T01:01:08;92668.34;;;3.92;59.86
15568;BME280;7885;42.596;23.044;2023-04-07T01:03:44;92650.84;;;3.79;59.17
15568;BME280;7885;42.596;23.044;2023-04-07T01:06:14;92658.31;;;3.89;59.12
15568;BME280;7885;42.596;23.044;2023-04-07T01:08:49;92650.25;;;3.89;58.73
15568;BME280;7885;42.596;23.044;2023-04-07T01:11:23;92657.41;;;3.81;58.41
15568;BME280;7885;42.596;23.044;2023-04-07T01:13:52;92657.47;;;3.85;58.11
15568;BME280;7885;42.596;23.044;2023-04-07T01:16:23;92651.97;;;3.78;59.20
15568;BME280;7885;42.596;23.044;2023-04-07T01:18:53;92639.81;;;3.65;57.75
15568;BME280;7885;42.596;23.044;2023-04-07T01:21:22;92652.50;;;3.64;58.46
15568;BME280;7885;42.596;23.044;2023-04-07T01:24:04;92645.91;;;3.62;58.38
15568;BME280;7885;42.596;23.044;2023-04-07T01:26:39;92654.00;;;3.62;58.57
15568;BME280;7885;42.596;23.044;2023-04-07T01:29:20;92649.03;;;3.64;58.66
15568;BME280;7885;42.596;23.044;2023-04-07T01:31:49;92647.97;;;3.49;58.10
15568;BME280;7885;42.596;23.044;2023-04-07T01:34:16;92645.28;;;3.49;58.34
15568;BME280;7885;42.596;23.044;2023-04-07T01:36:44;92652.44;;;3.41;58.80
15568;BME280;7885;42.596;23.044;2023-04-07T01:39:12;92646.66;;;3.39;59.63
15568;BME280;7885;42.596;23.044;2023-04-07T01:41:40;92638.88;;;3.34;59.36
15568;BME280;7885;42.596;23.044;2023-04-07T01:44:08;92646.25;;;3.37;59.24
15568;BME280;7885;42.596;23.044;2023-04-07T01:46:37;92646.09;;;3.30;59.51
15568;BME280;7885;42.596;23.044;2023-04-07T01:49:04;92638.69;;;3.24;58.97
15568;BME280;7885;42.596;23.044;2023-04-07T01:51:32;92637.06;;;3.19;59.23
15568;BME280;7885;42.596;23.044;2023-04-07T01:54:00;92628.06;;;3.12;59.88
15568;BME280;7885;42.596;23.044;2023-04-07T01:56:27;92634.00;;;3.21;59.85
15568;BME280;7885;42.596;23.044;2023-04-07T01:58:54;92637.59;;;3.28;59.25
15568;BME280;7885;42.596;23.044;2023-04-07T02:01:21;92633.72;;;3.26;59.58
15568;BME280;7885;42.596;23.044;2023-04-07T02:03:53;92632.66;;;3.30;59.86
15568;BME280;7885;42.596;23.044;2023-04-07T02:06:26;92622.69;;;3.31;59.17
15568;BME280;7885;42.596;23.044;2023-04-07T02:08:59;92609.50;;;3.26;60.46
15568;BME280;7885;42.596;23.044;2023-04-07T02:11:28;92623.59;;;3.19;59.68
15568;BME280;7885;42.596;23.044;2023-04-07T02:13:59;92624.53;;;3.27;59.44
15568;BME280;7885;42.596;23.044;2023-04-07T02:16:27;92627.34;;;3.34;59.95
15568;BME280;7885;42.596;23.044;2023-04-07T02:18:57;92623.28;;;3.43;59.36
15568;BME280;7885;42.596;23.044;2023-04-07T02:21:27;92617.06;;;3.39;59.13
15568;BME280;7885;42.596;23.044;2023-04-07T02:23:55;92623.41;;;3.50;59.17
15568;BME280;7885;42.596;23.044;2023-04-07T02:26:21;92620.66;;;3.47;59.12
15568;BME280;7885;42.596;23.044;2023-04-07T02:28:48;92620.84;;;3.58;58.28
15568;BME280;7885;42.596;23.044;2023-04-07T02:31:15;92624.81;;;3.64;57.22
15568;BME280;7885;42.596;23.044;2023-04-07T02:33:41;92619.41;;;3.64;57.59
15568;BME280;7885;42.596;23.044;2023-04-07T02:36:09;92624.22;;;3.74;57.27
15568;BME280;7885;42.596;23.044;2023-04-07T02:38:36;92617.13;;;3.66;57.46
15568;BME280;7885;42.596;23.044;2023-04-07T02:41:03;92621.44;;;3.70;56.69
15568;BME280;7885;42.596;23.044;2023-04-07T02:43:30;92628.34;;;3.68;56.97
15568;BME280;7885;42.596;23.044;2023-04-07T02:45:57;92623.75;;;3.68;56.78
15568;BME280;7885;42.596;23.044;2023-04-07T02:51:46;92625.78;;;3.75;56.57
15568;BME280;7885;42.596;23.044;2023-04-07T02:54:13;92619.59;;;3.74;56.85
15568;BME280;7885;42.596;23.044;2023-04-07T02:56:40;92628.75;;;3.70;56.55
15568;BME280;7885;42.596;23.044;2023-04-07T02:59:07;92630.25;;;3.67;56.34
15568;BME280;7885;42.596;23.044;2023-04-07T03:01:33;92634.19;;;3.73;56.60
15568;BME280;7885;42.596;23.044;2023-04-07T03:04:00;92637.66;;;3.74;56.91
15568;BME280;7885;42.596;23.044;2023-04-07T03:06:27;92635.03;;;3.77;57.07
15568;BME280;7885;42.596;23.044;2023-04-07T03:08:55;92638.50;;;3.78;55.85
15568;BME280;7885;42.596;23.044;2023-04-07T03:11:21;92630.13;;;3.83;56.45
15568;BME280;7885;42.596;23.044;2023-04-07T03:13:48;92635.56;;;3.86;56.47
15568;BME280;7885;42.596;23.044;2023-04-07T03:16:15;92633.38;;;3.92;56.22
15568;BME280;7885;42.596;23.044;2023-04-07T03:18:42;92636.91;;;3.96;56.54
15568;BME280;7885;42.596;23.044;2023-04-07T03:21:08;92636.84;;;3.92;56.31
15568;BME280;7885;42.596;23.044;2023-04-07T03:23:35;92640.41;;;4.00;55.77
15568;BME280;7885;42.596;23.044;2023-04-07T03:26:03;92638.03;;;3.95;55.82
15568;BME280;7885;42.596;23.044;2023-04-07T03:28:30;92636.78;;;3.89;55.83
15568;BME280;7885;42.596;23.044;2023-04-07T03:30:57;92639.09;;;3.90;55.52
15568;BME280;7885;42.596;23.044;2023-04-07T03:33:23;92638.19;;;3.83;56.04
15568;BME280;7885;42.596;23.044;2023-04-07T03:35:50;92636.22;;;3.80;56.07
15568;BME280;7885;42.596;23.044;2023-04-07T03:38:17;92642.38;;;3.80;55.77
15568;BME280;7885;42.596;23.044;2023-04-07T03:40:43;92639.50;;;3.70;55.80
15568;BME280;7885;42.596;23.044;2023-04-07T03:43:12;92640.94;;;3.64;56.01
15568;BME280;7885;42.596;23.044;2023-04-07T03:45:40;92642.50;;;3.65;56.22
15568;BME280;7885;42.596;23.044;2023-04-07T03:48:07;92643.50;;;3.56;56.82
15568;BME280;7885;42.596;23.044;2023-04-07T03:50:36;92636.88;;;3.50;57.27
15568;BME280;7885;42.596;23.044;2023-04-07T03:53:02;92644.50;;;3.48;57.30
15568;BME280;7885;42.596;23.044;2023-04-07T03:55:29;92646.06;;;3.49;57.36
15568;BME280;7885;42.596;23.044;2023-04-07T03:57:56;92620.81;;;3.35;57.69
15568;BME280;7885;42.596;23.044;2023-04-07T04:00:25;92645.09;;;3.38;57.48
15568;BME280;7885;42.596;23.044;2023-04-07T04:02:52;92644.25;;;3.34;58.24
15568;BME280;7885;42.596;23.044;2023-04-07T04:05:19;92643.13;;;3.16;58.82
15568;BME280;7885;42.596;23.044;2023-04-07T04:07:45;92640.38;;;2.93;60.05
15568;BME280;7885;42.596;23.044;2023-04-07T04:10:12;92652.47;;;2.84;60.85
15568;BME280;7885;42.596;23.044;2023-04-07T04:12:39;92658.38;;;2.74;61.24
15568;BME280;7885;42.596;23.044;2023-04-07T04:15:07;92650.19;;;2.67;61.48
15568;BME280;7885;42.596;23.044;2023-04-07T04:17:35;92659.34;;;2.66;61.63
15568;BME280;7885;42.596;23.044;2023-04-07T04:20:02;92652.78;;;2.63;61.69
15568;BME280;7885;42.596;23.044;2023-04-07T04:22:29;92656.09;;;2.57;62.00
15568;BME280;7885;42.596;23.044;2023-04-07T04:24:56;92659.50;;;2.53;62.84
15568;BME280;7885;42.596;23.044;2023-04-07T04:27:22;92648.41;;;2.55;62.30
15568;BME280;7885;42.596;23.044;2023-04-07T04:29:49;92661.84;;;2.55;62.53
15568;BME280;7885;42.596;23.044;2023-04-07T04:32:16;92646.59;;;2.43;61.83
15568;BME280;7885;42.596;23.044;2023-04-07T04:34:45;92656.47;;;2.55;61.64
15568;BME280;7885;42.596;23.044;2023-04-07T04:37:12;92660.50;;;2.65;61.79
15568;BME280;7885;42.596;23.044;2023-04-07T04:39:39;92662.19;;;2.73;60.18
15568;BME280;7885;42.596;23.044;2023-04-07T04:42:06;92656.81;;;2.73;60.46
15568;BME280;7885;42.596;23.044;2023-04-07T04:44:32;92655.00;;;2.77;60.86
15568;BME280;7885;42.596;23.044;2023-04-07T04:46:59;92665.75;;;2.77;60.99
15568;BME280;7885;42.596;23.044;2023-04-07T04:49:26;92666.19;;;2.79;60.60
15568;BME280;7885;42.596;23.044;2023-04-07T04:51:54;92670.00;;;2.78;60.61
15568;BME280;7885;42.596;23.044;2023-04-07T04:54:21;92660.88;;;2.82;60.29
15568;BME280;7885;42.596;23.044;2023-04-07T04:56:48;92661.03;;;2.89;59.80
15568;BME280;7885;42.596;23.044;2023-04-07T04:59:14;92674.09;;;2.91;59.89
15568;BME280;7885;42.596;23.044;2023-04-07T05:01:41;92668.03;;;2.94;59.48
15568;BME280;7885;42.596;23.044;2023-04-07T05:04:08;92669.28;;;3.00;59.41
15568;BME280;7885;42.596;23.044;2023-04-07T05:06:35;92664.91;;;3.11;59.09
15568;BME280;7885;42.596;23.044;2023-04-07T05:09:03;92675.97;;;3.25;59.32
15568;BME280;7885;42.596;23.044;2023-04-07T05:11:30;92671.84;;;3.31;58.64
15568;BME280;7885;42.596;23.044;2023-04-07T05:13:57;92674.53;;;3.50;58.23
15568;BME280;7885;42.596;23.044;2023-04-07T05:16:23;92676.34;;;3.66;58.76
15568;BME280;7885;42.596;23.044;2023-04-07T05:18:50;92678.63;;;3.64;57.95
15568;BME280;7885;42.596;23.044;2023-04-07T05:21:17;92692.75;;;3.80;57.13
15568;BME280;7885;42.596;23.044;2023-04-07T05:23:44;92673.88;;;3.57;57.12
15568;BME280;7885;42.596;23.044;2023-04-07T05:26:12;92696.91;;;3.54;57.48
15568;BME280;7885;42.596;23.044;2023-04-07T05:28:40;92704.97;;;3.35;57.11
15568;BME280;7885;42.596;23.044;2023-04-07T05:31:06;92677.53;;;3.26;57.03
15568;BME280;7885;42.596;23.044;2023-04-07T05:33:33;92683.81;;;3.34;58.05
15568;BME280;7885;42.596;23.044;2023-04-07T05:36:00;92699.16;;;3.52;58.17
15568;BME280;7885;42.596;23.044;2023-04-07T05:38:27;92690.94;;;3.65;57.83
15568;BME280;7885;42.596;23.044;2023-04-07T05:40:54;92685.34;;;3.96;57.67
15568;BME280;7885;42.596;23.044;2023-04-07T05:43:22;92665.06;;;4.02;55.73
15568;BME280;7885;42.596;23.044;2023-04-07T05:45:49;92681.69;;;4.07;56.29
15568;BME280;7885;42.596;23.044;2023-04-07T05:48:16;92691.22;;;4.01;56.84
15568;BME280;7885;42.596;23.044;2023-04-07T05:50:42;92700.00;;;3.98;56.25
15568;BME280;7885;42.596;23.044;2023-04-07T05:53:09;92688.47;;;3.98;55.60
15568;BME280;7885;42.596;23.044;2023-04-07T05:55:36;92687.19;;;4.15;56.29
15568;BME280;7885;42.596;23.044;2023-04-07T05:58:03;92685.25;;;4.38;54.71
15568;BME280;7885;42.596;23.044;2023-04-07T06:00:31;92705.78;;;4.69;53.85
15568;BME280;7885;42.596;23.044;2023-04-07T06:02:58;92690.50;;;4.80;54.00
15568;BME280;7885;42.596;23.044;2023-04-07T06:05:26;92692.81;;;4.78;53.20
15568;BME280;7885;42.596;23.044;2023-04-07T06:07:52;92700.78;;;4.97;54.60
15568;BME280;7885;42.596;23.044;2023-04-07T06:10:19;92693.84;;;4.96;53.07
15568;BME280;7885;42.596;23.044;2023-04-07T06:12:46;92706.69;;;4.80;54.89
15568;BME280;7885;42.596;23.044;2023-04-07T06:15:13;92692.19;;;4.88;54.14
15568;BME280;7885;42.596;23.044;2023-04-07T06:17:41;92709.19;;;4.92;54.71
15568;BME280;7885;42.596;23.044;2023-04-07T06:20:10;92698.41;;;4.92;53.54
15568;BME280;7885;42.596;23.044;2023-04-07T06:22:38;92684.13;;;4.91;54.42
15568;BME280;7885;42.596;23.044;2023-04-07T06:25:05;92693.00;;;4.92;53.96
15568;BME280;7885;42.596;23.044;2023-04-07T06:27:32;92704.41;;;5.08;53.49
15568;BME280;7885;42.596;23.044;2023-04-07T06:29:59;92692.53;;;5.13;52.37
15568;BME280;7885;42.596;23.044;2023-04-07T06:32:26;92701.56;;;4.97;52.99
15568;BME280;7885;42.596;23.044;2023-04-07T06:34:54;92702.91;;;4.84;53.66
15568;BME280;7885;42.596;23.044;2023-04-07T06:37:21;92705.56;;;4.81;54.67
15568;BME280;7885;42.596;23.044;2023-04-07T06:39:49;92685.84;;;4.77;55.01
15568;BME280;7885;42.596;23.044;2023-04-07T06:42:16;92688.03;;;4.94;54.94
15568;BME280;7885;42.596;23.044;2023-04-07T06:44:43;92696.38;;;5.45;52.40
15568;BME280;7885;42.596;23.044;2023-04-07T06:47:09;92702.88;;;6.07;51.45
15568;BME280;7885;42.596;23.044;2023-04-07T06:49:36;92704.94;;;6.61;49.81
15568;BME280;7885;42.596;23.044;2023-04-07T06:52:05;92711.41;;;7.04;47.48
15568;BME280;7885;42.596;23.044;2023-04-07T06:54:31;92705.75;;;7.23;46.56
15568;BME280;7885;42.596;23.044;2023-04-07T06:56:58;92695.22;;;7.11;46.21
15568;BME280;7885;42.596;23.044;2023-04-07T06:59:25;92683.97;;;7.02;46.05
15568;BME280;7885;42.596;23.044;2023-04-07T07:01:52;92710.75;;;7.21;46.72
15568;BME280;7885;42.596;23.044;2023-04-07T07:04:19;92721.47;;;7.07;46.03
15568;BME280;7885;42.596;23.044;2023-04-07T07:06:46;92706.78;;;7.04;46.19
15568;BME280;7885;42.596;23.044;2023-04-07T07:12:36;92716.34;;;7.60;45.59
15568;BME280;7885;42.596;23.044;2023-04-07T07:15:03;92705.53;;;7.63;44.76
15568;BME280;7885;42.596;23.044;2023-04-07T07:17:30;92727.09;;;7.42;45.75
15568;BME280;7885;42.596;23.044;2023-04-07T07:19:57;92714.75;;;7.48;46.73
15568;BME280;7885;42.596;23.044;2023-04-07T07:22:23;92722.41;;;7.32;46.94
15568;BME280;7885;42.596;23.044;2023-04-07T07:24:51;92720.41;;;7.22;46.59
15568;BME280;7885;42.596;23.044;2023-04-07T07:27:17;92718.44;;;7.16;46.79
15568;BME280;7885;42.596;23.044;2023-04-07T07:29:46;92715.22;;;6.96;47.39
15568;BME280;7885;42.596;23.044;2023-04-07T07:32:13;92733.19;;;7.25;46.40
15568;BME280;7885;42.596;23.044;2023-04-07T07:34:39;92731.06;;;7.62;47.46
15568;BME280;7885;42.596;23.044;2023-04-07T07:37:06;92739.69;;;7.86;44.68
15568;BME280;7885;42.596;23.044;2023-04-07T07:39:33;92720.03;;;8.13;45.28
15568;BME280;7885;42.596;23.044;2023-04-07T07:42:00;92717.41;;;8.49;44.03
15568;BME280;7885;42.596;23.044;2023-04-07T07:44:27;92723.63;;;8.63;43.28
15568;BME280;7885;42.596;23.044;2023-04-07T07:46:57;92729.06;;;8.71;42.43
15568;BME280;7885;42.596;23.044;2023-04-07T07:49:24;92713.53;;;8.46;42.50
15568;BME280;7885;42.596;23.044;2023-04-07T07:51:51;92726.72;;;8.73;42.70
15568;BME280;7885;42.596;23.044;2023-04-07T07:54:18;92724.44;;;8.85;42.96
15568;BME280;7885;42.596;23.044;2023-04-07T07:56:44;92729.06;;;8.99;43.24
15568;BME280;7885;42.596;23.044;2023-04-07T07:59:11;92731.00;;;8.84;42.65
15568;BME280;7885;42.596;23.044;2023-04-07T08:01:38;92728.28;;;8.74;42.04
15568;BME280;7885;42.596;23.044;2023-04-07T08:04:06;92737.59;;;9.01;42.73
15568;BME280;7885;42.596;23.044;2023-04-07T08:06:33;92734.50;;;8.85;42.10
15568;BME280;7885;42.596;23.044;2023-04-07T08:09:00;92729.44;;;8.73;42.73
15568;BME280;7885;42.596;23.044;2023-04-07T08:11:27;92739.91;;;8.67;44.00
15568;BME280;7885;42.596;23.044;2023-04-07T08:13:54;92736.06;;;8.75;43.13
15568;BME280;7885;42.596;23.044;2023-04-07T08:16:21;92706.59;;;8.74;43.71
15568;BME280;7885;42.596;23.044;2023-04-07T08:18:48;92728.28;;;9.02;43.51
15568;BME280;7885;42.596;23.044;2023-04-07T08:21:16;92720.09;;;9.37;42.42
15568;BME280;7885;42.596;23.044;2023-04-07T08:23:44;92729.38;;;9.57;41.24
15568;BME280;7885;42.596;23.044;2023-04-07T08:26:11;92735.03;;;10.02;41.02
15568;BME280;7885;42.596;23.044;2023-04-07T08:28:37;92731.06;;;11.34;39.49
15568;BME280;7885;42.596;23.044;2023-04-07T08:31:04;92719.69;;;13.01;36.46
15568;BME280;7885;42.596;23.044;2023-04-07T08:33:31;92723.34;;;13.18;32.23
15568;BME280;7885;42.596;23.044;2023-04-07T08:35:58;92720.19;;;12.09;33.59
15568;BME280;7885;42.596;23.044;2023-04-07T08:38:26;92720.25;;;13.16;32.76
15568;BME280;7885;42.596;23.044;2023-04-07T08:40:57;92719.81;;;14.46;30.71
15568;BME280;7885;42.596;23.044;2023-04-07T08:43:26;92725.25;;;15.18;29.10
15568;BME280;7885;42.596;23.044;2023-04-07T08:45:56;92731.94;;;15.33;28.15
15568;BME280;7885;42.596;23.044;2023-04-07T08:48:23;92735.78;;;15.36;27.99
15568;BME280;7885;42.596;23.044;2023-04-07T08:50:53;92723.88;;;15.42;28.95
15568;BME280;7885;42.596;23.044;2023-04-07T08:53:24;92726.72;;;16.00;27.04
15568;BME280;7885;42.596;23.044;2023-04-07T08:55:55;92729.66;;;16.09;26.66
15568;BME280;7885;42.596;23.044;2023-04-07T08:58:23;92718.53;;;16.41;26.05
15568;BME280;7885;42.596;23.044;2023-04-07T09:00:51;92724.16;;;17.04;24.71
15568;BME280;7885;42.596;23.044;2023-04-07T09:03:18;92725.69;;;16.93;25.38
15568;BME280;7885;42.596;23.044;2023-04-07T09:05:45;92722.22;;;16.22;26.75
15568;BME280;7885;42.596;23.044;2023-04-07T09:08:12;92709.53;;;15.83;27.44
15568;BME280;7885;42.596;23.044;2023-04-07T09:10:39;92727.19;;;14.85;27.53
15568;BME280;7885;42.596;23.044;2023-04-07T09:13:07;92724.19;;;13.38;29.70
15568;BME280;7885;42.596;23.044;2023-04-07T09:15:34;92714.44;;;12.87;30.95
15568;BME280;7885;42.596;23.044;2023-04-07T09:18:01;92727.75;;;13.35;29.98
15568;BME280;7885;42.596;23.044;2023-04-07T09:20:53;92721.44;;;13.61;30.16
15568;BME280;7885;42.596;23.044;2023-04-07T09:23:27;92696.22;;;14.33;29.15
15568;BME280;7885;42.596;23.044;2023-04-07T09:25:54;92714.75;;;14.81;28.90
15568;BME280;7885;42.596;23.044;2023-04-07T09:28:37;92710.19;;;14.38;28.44
15568;BME280;7885;42.596;23.044;2023-04-07T09:31:04;92723.09;;;14.57;29.14
15568;BME280;7885;42.596;23.044;2023-04-07T09:33:32;92728.63;;;14.74;28.19
15568;BME280;7885;42.596;23.044;2023-04-07T09:35:59;92716.09;;;15.08;28.54
15568;BME280;7885;42.596;23.044;2023-04-07T09:38:32;92721.69;;;14.49;28.68
15568;BME280;7885;42.596;23.044;2023-04-07T09:41:06;92722.81;;;13.50;30.15
15568;BME280;7885;42.596;23.044;2023-04-07T09:43:36;92719.94;;;12.84;31.48
15568;BME280;7885;42.596;23.044;2023-04-07T09:46:08;92718.72;;;12.61;32.88
15568;BME280;7885;42.596;23.044;2023-04-07T09:48:35;92720.88;;;12.47;32.26
15568;BME280;7885;42.596;23.044;2023-04-07T09:51:06;92734.59;;;12.09;32.57
15568;BME280;7885;42.596;23.044;2023-04-07T09:53:41;92737.69;;;11.78;33.04
15568;BME280;7885;42.596;23.044;2023-04-07T09:56:08;92734.44;;;11.49;33.62
15568;BME280;7885;42.596;23.044;2023-04-07T09:58:38;92727.63;;;11.30;33.91
15568;BME280;7885;42.596;23.044;2023-04-07T10:01:06;92738.88;;;11.32;37.08
15568;BME280;7885;42.596;23.044;2023-04-07T10:03:33;92719.69;;;11.02;35.38
15568;BME280;7885;42.596;23.044;2023-04-07T10:06:01;92730.66;;;10.91;36.33
15568;BME280;7885;42.596;23.044;2023-04-07T10:08:28;92735.78;;;10.82;36.78
15568;BME280;7885;42.596;23.044;2023-04-07T10:10:57;92730.81;;;10.67;37.01
15568;BME280;7885;42.596;23.044;2023-04-07T10:13:25;92725.09;;;10.50;37.22
15568;BME280;7885;42.596;23.044;2023-04-07T10:15:54;92735.91;;;10.64;36.85
15568;BME280;7885;42.596;23.044;2023-04-07T10:18:22;92728.94;;;10.60;38.30
15568;BME280;7885;42.596;23.044;2023-04-07T10:20:52;92730.25;;;10.34;37.45
15568;BME280;7885;42.596;23.044;2023-04-07T10:23:25;92735.22;;;10.46;37.19
15568;BME280;7885;42.596;23.044;2023-04-07T10:25:55;92733.28;;;10.47;36.48
15568;BME280;7885;42.596;23.044;2023-04-07T10:28:25;92721.16;;;10.55;36.71
15568;BME280;7885;42.596;23.044;2023-04-07T10:30:54;92731.72;;;10.46;37.52
15568;BME280;7885;42.596;23.044;2023-04-07T10:33:45;92730.97;;;10.45;38.19
15568;BME280;7885;42.596;23.044;2023-04-07T10:36:13;92733.09;;;10.79;37.89
15568;BME280;7885;42.596;23.044;2023-04-07T10:38:40;92730.50;;;10.57;35.90
15568;BME280;7885;42.596;23.044;2023-04-07T10:41:32;92731.59;;;10.71;36.61
15568;BME280;7885;42.596;23.044;2023-04-07T10:44:00;92738.97;;;10.70;36.95
15568;BME280;7885;42.596;23.044;2023-04-07T10:49:33;92737.88;;;10.57;37.05
15568;BME280;7885;42.596;23.044;2023-04-07T10:52:20;92736.06;;;10.40;36.19
15568;BME280;7885;42.596;23.044;2023-04-07T10:58:21;92732.34;;;10.75;37.08
15568;BME280;7885;42.596;23.044;2023-04-07T11:01:16;92741.31;;;10.72;37.87
15568;BME280;7885;42.596;23.044;2023-04-07T11:03:58;92737.34;;;10.80;36.33
15568;BME280;7885;42.596;23.044;2023-04-07T11:06:26;92734.22;;;10.85;36.02
15568;BME280;7885;42.596;23.044;2023-04-07T11:08:53;92731.44;;;10.92;36.54
15568;BME280;7885;42.596;23.044;2023-04-07T11:11:35;92738.78;;;10.95;36.74
15568;BME280;7885;42.596;23.044;2023-04-07T11:14:03;92732.94;;;10.96;36.66
15568;BME280;7885;42.596;23.044;2023-04-07T11:16:40;92734.84;;;11.03;36.60
15568;BME280;7885;42.596;23.044;2023-04-07T11:19:07;92727.56;;;10.89;35.95
15568;BME280;7885;42.596;23.044;2023-04-07T11:21:35;92722.97;;;10.76;38.19
15568;BME280;7885;42.596;23.044;2023-04-07T11:24:03;92725.00;;;10.68;37.75
15568;BME280;7885;42.596;23.044;2023-04-07T11:26:36;92730.03;;;10.70;36.65
15568;BME280;7885;42.596;23.044;2023-04-07T11:29:03;92733.53;;;10.70;36.65
15568;BME280;7885;42.596;23.044;2023-04-07T11:34:52;92735.09;;;11.19;37.08
15568;BME280;7885;42.596;23.044;2023-04-07T11:37:21;92726.88;;;11.26;36.44
15568;BME280;7885;42.596;23.044;2023-04-07T11:39:51;92733.34;;;11.39;35.51
15568;BME280;7885;42.596;23.044;2023-04-07T11:42:30;92740.03;;;11.31;36.14
15568;BME280;7885;42.596;23.044;2023-04-07T11:44:57;92734.78;;;11.10;36.08
15568;BME280;7885;42.596;23.044;2023-04-07T11:47:33;92727.47;;;11.00;36.29
15568;BME280;7885;42.596;23.044;2023-04-07T11:50:00;92736.28;;;11.18;37.56
15568;BME280;7885;42.596;23.044;2023-04-07T11:52:28;92739.00;;;11.18;36.79
15568;BME280;7885;42.596;23.044;2023-04-07T11:55:06;92740.09;;;11.24;35.88
15568;BME280;7885;42.596;23.044;2023-04-07T11:57:34;92731.38;;;10.99;35.54
15568;BME280;7885;42.596;23.044;2023-04-07T12:00:07;92733.72;;;10.97;36.54
15568;BME280;7885;42.596;23.044;2023-04-07T12:02:35;92722.88;;;10.90;36.57
15568;BME280;7885;42.596;23.044;2023-04-07T12:05:02;92729.34;;;11.10;36.74
15568;BME280;7885;42.596;23.044;2023-04-07T12:07:30;92720.53;;;10.92;36.90
15568;BME280;7885;42.596;23.044;2023-04-07T12:09:57;92732.75;;;11.18;37.11
15568;BME280;7885;42.596;23.044;2023-04-07T12:12:25;92734.22;;;11.29;37.35
15568;BME280;7885;42.596;23.044;2023-04-07T12:14:52;92714.88;;;11.20;35.96
15568;BME280;7885;42.596;23.044;2023-04-07T12:17:20;92722.56;;;11.29;36.18
15568;BME280;7885;42.596;23.044;2023-04-07T12:19:47;92724.50;;;11.28;37.92
15568;BME280;7885;42.596;23.044;2023-04-07T12:22:13;92715.59;;;11.24;38.17
15568;BME280;7885;42.596;23.044;2023-04-07T12:24:42;92727.16;;;11.35;38.19
15568;BME280;7885;42.596;23.044;2023-04-07T12:27:08;92732.91;;;11.48;38.23
15568;BME280;7885;42.596;23.044;2023-04-07T12:29:35;92737.25;;;11.38;38.35
15568;BME280;7885;42.596;23.044;2023-04-07T12:32:03;92734.81;;;11.51;38.18
15568;BME280;7885;42.596;23.044;2023-04-07T12:34:29;92731.53;;;11.66;38.73
15568;BME280;7885;42.596;23.044;2023-04-07T12:36:56;92737.66;;;11.81;38.00
15568;BME280;7885;42.596;23.044;2023-04-07T12:39:23;92735.97;;;11.91;37.66
15568;BME280;7885;42.596;23.044;2023-04-07T12:41:51;92737.72;;;12.08;37.07
15568;BME280;7885;42.596;23.044;2023-04-07T12:44:18;92711.81;;;11.93;37.18
15568;BME280;7885;42.596;23.044;2023-04-07T12:46:45;92738.09;;;12.10;36.93
15568;BME280;7885;42.596;23.044;2023-04-07T12:49:12;92737.38;;;12.06;36.32
15568;BME280;7885;42.596;23.044;2023-04-07T12:51:38;92736.66;;;11.98;37.00
15568;BME280;7885;42.596;23.044;2023-04-07T12:54:05;92722.72;;;11.93;37.23
15568;BME280;7885;42.596;23.044;2023-04-07T12:56:32;92740.56;;;11.97;37.58
15568;BME280;7885;42.596;23.044;2023-04-07T12:59:00;92745.25;;;11.97;37.62
15568;BME280;7885;42.596;23.044;2023-04-07T13:01:27;92742.44;;;12.04;37.25
15568;BME280;7885;42.596;23.044;2023-04-07T13:03:53;92717.03;;;11.77;37.44
15568;BME280;7885;42.596;23.044;2023-04-07T13:06:20;92720.50;;;11.81;37.41
15568;BME280;7885;42.596;23.044;2023-04-07T13:08:47;92747.34;;;11.86;38.44
15568;BME280;7885;42.596;23.044;2023-04-07T13:11:14;92733.78;;;11.79;38.31
15568;BME280;7885;42.596;23.044;2023-04-07T13:13:41;92719.97;;;11.55;38.76
15568;BME280;7885;42.596;23.044;2023-04-07T13:16:09;92726.19;;;11.56;39.14
15568;BME280;7885;42.596;23.044;2023-04-07T13:18:36;92730.50;;;11.53;38.19
15568;BME280;7885;42.596;23.044;2023-04-07T13:21:03;92749.56;;;11.53;38.97
15568;BME280;7885;42.596;23.044;2023-04-07T13:23:30;92751.09;;;11.58;39.16
15568;BME280;7885;42.596;23.044;2023-04-07T13:25:57;92730.28;;;11.37;39.04
15568;BME280;7885;42.596;23.044;2023-04-07T13:28:24;92745.75;;;11.47;39.79
15568;BME280;7885;42.596;23.044;2023-04-07T13:30:50;92738.03;;;11.39;39.27